Flight Track Log - Related Links

Times and Time Zones

All times are in EDT time to prevent confusion due to time zone crossing. See the CPT8773 flight status page for this flight to view local times or setup timezone preferences in your user account.

Time Position Orientation Groundspeed Altitude Reporting Facility
EDT Latitude Longitude Course Direction KTS MPH feet Rate Location/Type
Mon 09:01:05 AM 42.9567 -106.5183 308° West 167 192 6,900  Level Denver Center
Mon 09:02:06 AM 42.9886 -106.5364 338° Northwest 134 154 7,700 689 Climbing Denver Center
Mon 09:03:07 AM 43.0225 -106.5517 342° North 134 154 8,300 590 Climbing Denver Center
Mon 09:04:08 AM 43.0614 -106.5717 339° North 134 154 8,900 639 Climbing Denver Center
Mon 09:05:00 AM 43.0884 -106.2755 308° West  Level FlightAware Approximate
Mon 09:05:09 AM 43.0956 -106.5867 342° North 134 154 9,600  Level Denver Center
Mon 09:06:00 AM 43.1126 -106.3178 308° West  Level FlightAware Approximate
Mon 09:06:10 AM 43.1314 -106.6028 342° North 128 147 10,200  Level Denver Center
Mon 09:07:11 AM 43.1647 -106.6156 344° North 128 147 10,700 541 Climbing Denver Center
Mon 09:08:12 AM 43.2031 -106.6297 345° North 129 148 11,300 541 Climbing Denver Center
Mon 09:09:13 AM 43.2347 -106.6450 341° North 127 146 11,800 341 Climbing Denver Center
Mon 09:10:15 AM 43.2689 -106.6564 346° North 129 148 12,000 89 Climbing Denver Center
Mon 09:11:28 AM 43.3094 -106.6875 331° Northwest 148 170 12,000  Level Denver Center
Mon 09:12:29 AM 43.3361 -106.7411 304° West 150 173 12,000  Level Denver Center
Mon 09:13:30 AM 43.3617 -106.7942 304° West 149 171 12,000  Level Denver Center
Mon 09:14:31 AM 43.3856 -106.8392 306° West 150 173 12,000  Level Denver Center
Mon 09:15:32 AM 43.4117 -106.8900 305° West 150 173 12,000  Level Denver Center
Mon 09:16:33 AM 43.4358 -106.9367 306° West 150 173 12,000  Level Denver Center
Mon 09:17:34 AM 43.4617 -106.9811 309° West 150 173 12,000  Level Denver Center
Mon 09:18:35 AM 43.4847 -107.0272 305° West 147 169 12,000  Level Denver Center
Mon 09:19:36 AM 43.5089 -107.0742 305° West 150 173 12,000 49 Level Denver Center
Mon 09:20:38 AM 43.5325 -107.1203 305° West 149 171 12,100  Climbing Denver Center
Mon 09:21:22 AM 43.5497 -107.1558 304° West 142 163 12,000 -57 Descending Salt Lake Center
Mon 09:22:23 AM 43.5722 -107.2031 303° West 146 168 12,000  Level Salt Lake Center
Mon 09:23:24 AM 43.5969 -107.2464 308° West 144 166 12,000  Level Salt Lake Center
Mon 09:24:26 AM 43.6192 -107.2950 302° West 147 169 12,000  Level Salt Lake Center
Mon 09:25:27 AM 43.6433 -107.3383 308° West 144 166 12,000  Level Salt Lake Center
Mon 09:26:28 AM 43.6678 -107.3853 306° West 149 171 12,000  Level Salt Lake Center
Mon 09:27:29 AM 43.6928 -107.4322 306° West 151 174 12,000  Level Salt Lake Center
Mon 09:28:30 AM 43.7172 -107.4794 306° West 151 174 12,000  Level Salt Lake Center
Mon 09:29:31 AM 43.7406 -107.5250 305° West 149 171 12,000  Level Salt Lake Center
Mon 09:30:32 AM 43.7644 -107.5711 306° West 148 170 12,000  Level Salt Lake Center
Mon 09:31:34 AM 43.7942 -107.6294 305° West 150 173 12,000  Level Salt Lake Center
Mon 09:32:35 AM 43.8183 -107.6761 306° West 151 174 12,000  Level Salt Lake Center
Mon 09:33:36 AM 43.8428 -107.7217 307° West 150 173 12,000  Level Salt Lake Center
Mon 09:34:37 AM 43.8667 -107.7675 306° West 148 170 12,000  Level Salt Lake Center
Mon 09:35:38 AM 43.8917 -107.8139 307° West 149 171 12,000  Level Salt Lake Center
Mon 09:36:39 AM 43.9156 -107.8628 304° West 150 173 12,000  Level Salt Lake Center
Mon 09:38:42 AM 43.9639 -107.9575 305° West 151 174 12,000 -130 Level Salt Lake Center
Mon 09:39:43 AM 43.9892 -108.0042 307° West 151 174 11,600 -439 Descending Salt Lake Center
Mon 09:40:45 AM 44.0139 -108.0503 307° West 151 174 11,100 -488 Descending Salt Lake Center
Mon 09:41:46 AM 44.0456 -108.1089 307° West 153 176 10,600 -328 Descending Salt Lake Center
Mon 09:43:00 AM 44.0760 -108.1693 305° West  Level FlightAware Approximate
Mon 09:43:48 AM 44.0956 -108.2067 305° West 155 178 10,100  Level Salt Lake Center
Mon 09:44:50 AM 44.1192 -108.2519 306° West 151 174 10,100  Level Salt Lake Center
Mon 09:45:51 AM 44.1447 -108.2967 309° West 149 171 10,100  Level Salt Lake Center
Mon 09:46:52 AM 44.1689 -108.3408 307° West 147 169 10,100  Level Salt Lake Center
Mon 09:47:54 AM 44.1931 -108.3875 306° West 147 169 10,100  Level Salt Lake Center
Mon 09:48:55 AM 44.2181 -108.4342 307° West 148 170 10,100  Level Salt Lake Center
Mon 09:49:57 AM 44.2425 -108.4803 307° West 149 171 10,100  Level Salt Lake Center
Mon 09:50:58 AM 44.2678 -108.5269 307° West 149 171 10,100  Level Salt Lake Center
Mon 09:51:59 AM 44.2992 -108.5822 308° West 150 173 10,100  Level Salt Lake Center
Mon 09:53:01 AM 44.3239 -108.6300 306° West 151 174 10,100  Level Salt Lake Center

Login

Don't have an account? Register now (free) for customized features, flight alerts, and more!